createdAt,value
2023-09-27T00:00:32.268Z,99841.70
2023-09-27T00:02:39.187Z,99841.18
2023-09-27T00:04:45.361Z,99838.05
2023-09-27T00:06:55.301Z,99834.87
2023-09-27T00:09:02.500Z,99836.48
2023-09-27T00:11:11.451Z,99832.95
2023-09-27T00:13:19.459Z,99832.30
2023-09-27T00:15:25.415Z,99829.41
2023-09-27T00:17:31.917Z,99831.84
2023-09-27T00:19:40.144Z,99830.74
2023-09-27T00:21:45.605Z,99827.90
2023-09-27T00:23:53.111Z,99827.48
2023-09-27T00:26:02.266Z,99828.20
2023-09-27T00:28:10.640Z,99824.30
2023-09-27T00:30:20.242Z,99828.28
2023-09-27T00:32:27.784Z,99822.04
2023-09-27T00:34:36.175Z,99820.96
2023-09-27T00:36:43.696Z,99821.14
2023-09-27T00:38:51.823Z,99821.59
2023-09-27T00:40:58.665Z,99821.27
2023-09-27T00:43:04.795Z,99823.82
2023-09-27T00:45:14.139Z,99824.21
2023-09-27T00:47:20.531Z,99819.74
2023-09-27T00:49:28.116Z,99819.37
2023-09-27T00:51:33.685Z,99821.19
2023-09-27T00:53:42.606Z,99823.25
2023-09-27T00:55:50.073Z,99824.27
2023-09-27T00:57:57.126Z,99824.08
2023-09-27T01:03:26.415Z,99822.35
2023-09-27T01:05:31.906Z,99825.77
2023-09-27T01:07:37.938Z,99826.90
2023-09-27T01:09:42.692Z,99824.08
2023-09-27T01:11:47.982Z,99821.55
2023-09-27T01:13:55.840Z,99821.11
2023-09-27T01:16:00.544Z,99819.42
2023-09-27T01:18:05.999Z,99816.83
2023-09-27T01:20:12.550Z,99815.10
2023-09-27T01:22:17.418Z,99812.88
2023-09-27T01:24:22.866Z,99813.23
2023-09-27T01:26:29.813Z,99813.23
2023-09-27T01:28:36.511Z,99811.35
2023-09-27T01:30:41.351Z,99814.40
2023-09-27T01:32:49.335Z,99808.88
2023-09-27T01:34:57.080Z,99810.07
2023-09-27T01:37:01.822Z,99808.31
2023-09-27T01:39:06.758Z,99809.55
2023-09-27T01:41:11.673Z,99807.82
2023-09-27T01:43:16.546Z,99808.17
2023-09-27T01:45:24.413Z,99810.71
2023-09-27T01:47:32.410Z,99808.80
2023-09-27T01:49:37.247Z,99809.78
2023-09-27T01:51:43.283Z,99809.02
2023-09-27T01:53:48.080Z,99806.76
2023-09-27T01:55:52.871Z,99805.95
2023-09-27T01:57:58.236Z,99808.44
2023-09-27T02:00:03.129Z,99808.22
2023-09-27T02:02:17.113Z,99808.77
2023-09-27T02:04:21.842Z,99805.15
2023-09-27T02:06:29.241Z,99808.77
2023-09-27T02:08:34.179Z,99807.04
2023-09-27T02:10:38.903Z,99802.20
2023-09-27T02:12:43.852Z,99801.66
2023-09-27T02:14:52.976Z,99804.50
2023-09-27T02:16:57.653Z,99803.30
2023-09-27T02:19:02.341Z,99805.88
2023-09-27T02:21:07.368Z,99806.78
2023-09-27T02:23:12.262Z,99808.64
2023-09-27T02:25:17.604Z,99810.55
2023-09-27T02:27:22.461Z,99808.50
2023-09-27T02:29:27.442Z,99809.28
2023-09-27T02:31:32.293Z,99804.69
2023-09-27T02:33:37.086Z,99805.75
2023-09-27T02:35:41.869Z,99804.86
2023-09-27T02:37:46.917Z,99804.08
2023-09-27T02:39:52.733Z,99805.77
2023-09-27T02:41:58.013Z,99804.61
2023-09-27T02:44:02.757Z,99802.05
2023-09-27T02:46:07.574Z,99799.35
2023-09-27T02:48:12.460Z,99799.52
2023-09-27T02:50:17.716Z,99800.58
2023-09-27T02:52:22.516Z,99801.73
2023-09-27T02:54:27.952Z,99801.31
2023-09-27T02:56:35.532Z,99806.15
2023-09-27T02:58:40.374Z,99804.29
2023-09-27T03:00:45.251Z,99805.59
2023-09-27T03:02:52.197Z,99806.40
2023-09-27T03:04:57.467Z,99797.85
2023-09-27T03:07:02.358Z,99800.08
2023-09-27T03:09:07.524Z,99798.00
2023-09-27T03:11:15.230Z,99801.08
2023-09-27T03:13:20.555Z,99796.98
2023-09-27T03:15:25.356Z,99797.09
2023-09-27T03:17:30.948Z,99799.89
2023-09-27T03:19:35.750Z,99806.00
2023-09-27T03:21:40.722Z,99808.45
2023-09-27T03:23:45.493Z,99803.17
2023-09-27T03:25:50.312Z,99808.20
2023-09-27T03:27:55.153Z,99812.02
2023-09-27T03:29:59.982Z,99811.14
2023-09-27T03:32:04.918Z,99813.69
2023-09-27T03:34:10.532Z,99812.93
2023-09-27T03:36:15.556Z,99809.19
2023-09-27T03:38:20.366Z,99810.55
2023-09-27T03:40:25.339Z,99809.58
2023-09-27T03:42:30.271Z,99816.23
2023-09-27T03:44:34.956Z,99817.77
2023-09-27T03:46:40.586Z,99813.90
2023-09-27T03:48:49.103Z,99815.51
2023-09-27T03:50:58.381Z,99814.08
2023-09-27T03:53:04.819Z,99814.83
2023-09-27T03:55:10.674Z,99811.73
2023-09-27T03:57:15.704Z,99814.48
2023-09-27T03:59:20.565Z,99810.59
2023-09-27T04:01:25.499Z,99808.39
2023-09-27T04:03:30.686Z,99810.45
2023-09-27T04:05:38.327Z,99813.92
2023-09-27T04:07:43.323Z,99815.95
2023-09-27T04:09:48.127Z,99817.55
2023-09-27T04:11:52.884Z,99816.27
2023-09-27T04:13:57.710Z,99815.54
2023-09-27T04:16:02.665Z,99824.14
2023-09-27T04:18:07.898Z,99823.38
2023-09-27T04:20:13.142Z,99825.89
2023-09-27T04:22:17.873Z,99827.67
2023-09-27T04:24:22.909Z,99834.02
2023-09-27T04:26:29.514Z,99837.38
2023-09-27T04:28:37.208Z,99837.35
2023-09-27T04:30:41.856Z,99840.02
2023-09-27T04:32:47.702Z,99838.77
2023-09-27T04:34:52.545Z,99842.41
2023-09-27T04:36:57.346Z,99840.39
2023-09-27T04:39:05.367Z,99839.52
2023-09-27T04:41:10.185Z,99841.27
2023-09-27T04:43:14.991Z,99839.13
2023-09-27T04:45:19.936Z,99840.16
2023-09-27T04:47:24.743Z,99844.27
2023-09-27T04:49:29.577Z,99846.38
2023-09-27T04:51:34.417Z,99847.40
2023-09-27T04:53:39.514Z,99846.85
2023-09-27T04:55:44.570Z,99850.89
2023-09-27T04:57:49.366Z,99854.39
2023-09-27T04:59:55.145Z,99855.18
2023-09-27T05:02:00.319Z,99851.58
2023-09-27T05:04:05.848Z,99849.86
2023-09-27T05:06:10.745Z,99856.79
2023-09-27T05:08:15.553Z,99856.86
2023-09-27T05:10:20.716Z,99856.06
2023-09-27T05:12:25.740Z,99856.29
2023-09-27T05:14:30.636Z,99855.20
2023-09-27T05:16:39.082Z,99852.15
2023-09-27T05:18:45.208Z,99854.43
2023-09-27T05:20:49.959Z,99857.67
2023-09-27T05:22:55.002Z,99857.52
2023-09-27T05:24:59.724Z,99862.67
2023-09-27T05:27:04.561Z,99865.02
2023-09-27T05:29:11.258Z,99868.47
2023-09-27T05:31:16.316Z,99870.41
2023-09-27T05:33:22.353Z,99868.02
2023-09-27T05:35:27.397Z,99869.58
2023-09-27T05:37:32.189Z,99873.70
2023-09-27T05:39:36.964Z,99876.35
2023-09-27T05:41:42.738Z,99873.11
2023-09-27T05:43:47.455Z,99875.23
2023-09-27T05:45:52.283Z,99875.06
2023-09-27T05:47:57.297Z,99877.48
2023-09-27T05:50:02.318Z,99875.36
2023-09-27T05:52:07.247Z,99877.63
2023-09-27T05:54:12.095Z,99880.06
2023-09-27T05:56:17.989Z,99883.15
2023-09-27T05:58:22.772Z,99879.65
2023-09-27T06:00:27.885Z,99882.96
2023-09-27T06:02:33.090Z,99880.65
2023-09-27T06:04:37.936Z,99882.83
2023-09-27T06:06:42.710Z,99880.39
2023-09-27T06:08:50.950Z,99882.65
2023-09-27T06:10:55.908Z,99884.10
2023-09-27T06:13:00.571Z,99876.45
2023-09-27T06:15:06.528Z,99884.45
2023-09-27T06:17:11.589Z,99889.65
2023-09-27T06:19:16.546Z,99890.92
2023-09-27T06:21:21.690Z,99887.14
2023-09-27T06:23:27.026Z,99895.58
2023-09-27T06:25:32.193Z,99899.75
2023-09-27T06:27:37.003Z,99898.17
2023-09-27T06:29:41.880Z,99905.58
2023-09-27T06:31:47.050Z,99905.98
2023-09-27T06:33:51.981Z,99910.81
2023-09-27T06:36:02.136Z,99918.58
2023-09-27T06:38:07.258Z,99913.98
2023-09-27T06:40:13.367Z,99918.02
2023-09-27T06:42:18.378Z,99924.55
2023-09-27T06:44:23.261Z,99930.11
2023-09-27T06:46:35.623Z,99927.41
2023-09-27T06:48:52.350Z,99933.39
2023-09-27T06:50:57.327Z,99944.48
2023-09-27T06:53:19.845Z,99947.21
2023-09-27T06:55:26.954Z,99945.26
2023-09-27T06:57:31.790Z,99943.31
2023-09-27T06:59:36.801Z,99940.41
2023-09-27T07:01:43.134Z,99945.42
2023-09-27T07:03:48.205Z,99945.71
2023-09-27T07:05:53.675Z,99945.35
2023-09-27T07:07:58.497Z,99950.86
2023-09-27T07:10:03.427Z,99946.10
2023-09-27T07:12:08.545Z,99948.23
2023-09-27T07:14:16.678Z,99950.80
2023-09-27T07:16:26.138Z,99953.95
2023-09-27T07:18:31.486Z,99955.89
2023-09-27T07:20:36.559Z,99955.71
2023-09-27T07:22:41.590Z,99958.67
2023-09-27T07:24:46.733Z,99955.56
2023-09-27T07:26:51.675Z,99963.04
2023-09-27T07:28:56.739Z,99955.78
2023-09-27T07:31:01.852Z,99964.47
2023-09-27T07:33:07.693Z,99963.32
2023-09-27T07:35:12.822Z,99969.21
2023-09-27T07:37:17.882Z,99966.90
2023-09-27T07:39:22.928Z,99966.98
2023-09-27T07:41:28.216Z,99968.93
2023-09-27T07:43:33.261Z,99970.06
2023-09-27T07:45:39.425Z,99964.60
2023-09-27T07:47:44.745Z,99968.34
2023-09-27T07:49:49.788Z,99966.42
2023-09-27T07:51:54.885Z,99971.24
2023-09-27T07:54:00.020Z,99971.73
2023-09-27T07:56:05.539Z,99973.07
2023-09-27T07:58:10.840Z,99974.57
2023-09-27T08:00:17.439Z,99975.30
2023-09-27T08:02:22.997Z,99974.06
2023-09-27T08:04:29.482Z,99971.58
2023-09-27T08:06:34.781Z,99971.69
2023-09-27T08:08:40.249Z,99971.86
2023-09-27T08:10:45.660Z,99968.82
2023-09-27T08:12:53.501Z,99970.05
2023-09-27T08:14:58.381Z,99972.41
2023-09-27T08:17:03.775Z,99972.83
2023-09-27T08:19:08.872Z,99975.02
2023-09-27T08:21:16.424Z,99973.93
2023-09-27T08:23:21.560Z,99977.95
2023-09-27T08:25:26.459Z,99980.88
2023-09-27T08:27:31.533Z,99981.27
2023-09-27T08:29:36.674Z,99984.27
2023-09-27T08:31:42.295Z,99987.59
2023-09-27T08:33:47.500Z,99987.02
2023-09-27T08:35:54.264Z,99987.08
2023-09-27T08:37:59.461Z,99982.64
2023-09-27T08:40:04.993Z,99981.52
2023-09-27T08:42:10.133Z,99976.10
2023-09-27T08:44:15.370Z,99979.11
2023-09-27T08:46:23.256Z,99975.40
2023-09-27T08:48:31.595Z,99977.46
2023-09-27T08:50:38.208Z,99974.36
2023-09-27T08:52:46.446Z,99975.88
2023-09-27T08:54:52.708Z,99976.54
2023-09-27T08:56:58.326Z,99974.70
2023-09-27T08:59:07.080Z,99976.39
2023-09-27T09:01:12.672Z,99971.33
2023-09-27T09:03:18.600Z,99972.59
2023-09-27T09:05:24.397Z,99975.16
2023-09-27T09:07:29.325Z,99970.38
2023-09-27T09:09:37.330Z,99969.75
2023-09-27T09:11:45.316Z,99964.55
2023-09-27T09:14:01.481Z,99960.43
2023-09-27T09:16:17.127Z,99961.21
2023-09-27T09:18:30.244Z,99961.91
2023-09-27T09:20:35.937Z,99962.10
2023-09-27T09:22:45.731Z,99966.46
2023-09-27T09:24:59.458Z,99962.08
2023-09-27T09:27:13.602Z,99968.48
2023-09-27T09:29:21.161Z,99966.73
2023-09-27T09:31:27.970Z,99963.49
2023-09-27T09:33:33.062Z,99966.27
2023-09-27T09:35:38.172Z,99966.63
2023-09-27T09:37:48.466Z,99970.52
2023-09-27T09:39:54.759Z,99967.98
2023-09-27T09:42:00.358Z,99964.16
2023-09-27T09:44:19.011Z,99960.32
2023-09-27T09:46:27.461Z,99958.70
2023-09-27T09:48:33.417Z,99957.77
2023-09-27T09:50:40.667Z,99953.58
2023-09-27T09:52:53.522Z,99952.57
2023-09-27T09:55:15.321Z,99953.36
2023-09-27T09:57:51.670Z,99955.25
2023-09-27T10:00:06.360Z,99957.88
2023-09-27T10:02:20.752Z,99957.46
2023-09-27T10:04:28.019Z,99954.70
2023-09-27T10:06:47.400Z,99955.58
2023-09-27T10:09:00.013Z,99949.44
2023-09-27T10:11:06.745Z,99949.34
2023-09-27T10:13:14.558Z,99951.59
2023-09-27T10:15:21.816Z,99948.87
2023-09-27T10:17:30.455Z,99949.41
2023-09-27T10:19:36.082Z,99948.52
2023-09-27T10:22:02.979Z,99950.35
2023-09-27T10:24:10.898Z,99948.28
2023-09-27T10:26:31.648Z,99946.80
2023-09-27T10:29:12.958Z,99941.20
2023-09-27T10:31:18.015Z,99941.39
2023-09-27T10:33:35.573Z,99940.02
2023-09-27T10:35:40.640Z,99937.10
2023-09-27T10:37:59.854Z,99933.69
2023-09-27T10:40:24.328Z,99927.39
2023-09-27T10:42:42.629Z,99923.79
2023-09-27T10:44:47.707Z,99918.56
2023-09-27T10:46:52.560Z,99915.30
2023-09-27T10:48:58.258Z,99909.84
2023-09-27T10:51:03.182Z,99910.61
2023-09-27T10:53:08.897Z,99906.41
2023-09-27T10:55:15.808Z,99900.67
2023-09-27T10:57:22.860Z,99895.09
2023-09-27T10:59:28.638Z,99894.65
2023-09-27T11:01:33.798Z,99888.90
2023-09-27T11:03:38.796Z,99886.84
2023-09-27T11:05:43.759Z,99880.92
2023-09-27T11:07:50.567Z,99876.89
2023-09-27T11:09:55.444Z,99874.98
2023-09-27T11:12:00.541Z,99873.54
2023-09-27T11:14:05.771Z,99870.53
2023-09-27T11:16:12.166Z,99869.33
2023-09-27T11:18:17.317Z,99863.27
2023-09-27T11:20:24.737Z,99862.11
2023-09-27T11:22:31.688Z,99852.27
2023-09-27T11:24:42.752Z,99851.75
2023-09-27T11:26:47.874Z,99846.01
2023-09-27T11:29:00.364Z,99847.02
2023-09-27T11:31:06.085Z,99837.69
2023-09-27T11:33:12.339Z,99839.16
2023-09-27T11:35:21.189Z,99837.36
2023-09-27T11:37:26.668Z,99836.64
2023-09-27T11:39:47.847Z,99834.61
2023-09-27T11:41:59.111Z,99834.75
2023-09-27T11:44:17.806Z,99828.45
2023-09-27T11:46:29.909Z,99823.11
2023-09-27T11:48:35.481Z,99823.29
2023-09-27T11:50:41.103Z,99820.98
2023-09-27T11:52:47.210Z,99813.95
2023-09-27T11:54:52.233Z,99807.55
2023-09-27T11:56:57.369Z,99808.67
2023-09-27T11:59:02.915Z,99807.06
2023-09-27T12:01:07.995Z,99801.30
2023-09-27T12:03:13.133Z,99801.91
2023-09-27T12:05:18.911Z,99795.98
2023-09-27T12:07:24.391Z,99797.78
2023-09-27T12:09:29.716Z,99796.08
2023-09-27T12:11:34.827Z,99792.20
2023-09-27T12:13:40.802Z,99791.52
2023-09-27T12:15:45.875Z,99791.52
2023-09-27T12:17:51.204Z,99788.42
2023-09-27T12:19:56.104Z,99790.42
2023-09-27T12:22:01.169Z,99786.64
2023-09-27T12:24:07.183Z,99786.95
2023-09-27T12:26:12.471Z,99780.42
2023-09-27T12:28:17.611Z,99779.44
2023-09-27T12:30:22.707Z,99783.38
2023-09-27T12:32:27.802Z,99781.34
2023-09-27T12:34:32.871Z,99781.46
2023-09-27T12:36:38.829Z,99779.76
2023-09-27T12:38:43.652Z,99777.32
2023-09-27T12:40:48.708Z,99776.66
2023-09-27T12:42:53.690Z,99776.05
2023-09-27T12:44:58.714Z,99770.04
2023-09-27T12:47:03.901Z,99765.86
2023-09-27T12:49:09.384Z,99763.67
2023-09-27T12:51:14.589Z,99759.92
2023-09-27T12:53:19.533Z,99759.90
2023-09-27T12:55:24.869Z,99758.39
2023-09-27T12:57:29.964Z,99755.14
2023-09-27T12:59:35.042Z,99750.59
2023-09-27T13:01:41.879Z,99746.39
2023-09-27T13:03:47.318Z,99745.96
2023-09-27T13:05:52.590Z,99746.62
2023-09-27T13:07:57.627Z,99742.68
2023-09-27T13:10:02.767Z,99741.10
2023-09-27T13:12:10.832Z,99740.64
2023-09-27T13:14:16.127Z,99742.09
2023-09-27T13:16:21.369Z,99743.91
2023-09-27T13:18:29.610Z,99739.23
2023-09-27T13:20:35.965Z,99741.30
2023-09-27T13:22:41.578Z,99734.75
2023-09-27T13:24:49.302Z,99735.92
2023-09-27T13:26:54.777Z,99735.09
2023-09-27T13:29:00.037Z,99734.13
2023-09-27T13:31:05.374Z,99733.95
2023-09-27T13:33:10.295Z,99731.81
2023-09-27T13:35:15.874Z,99728.77
2023-09-27T13:37:21.285Z,99725.69
2023-09-27T13:39:26.541Z,99724.65
2023-09-27T13:41:32.192Z,99720.36
2023-09-27T13:43:37.383Z,99718.16
2023-09-27T13:45:44.072Z,99716.23
2023-09-27T13:47:56.330Z,99711.34
2023-09-27T13:50:01.524Z,99707.71
2023-09-27T13:52:06.622Z,99707.05
2023-09-27T13:54:12.215Z,99709.29
2023-09-27T13:56:18.461Z,99709.92
2023-09-27T13:58:23.597Z,99710.74
2023-09-27T14:00:28.688Z,99705.94
2023-09-27T14:02:33.828Z,99705.52
2023-09-27T14:04:38.856Z,99704.25
2023-09-27T14:06:43.942Z,99701.98
2023-09-27T14:08:49.091Z,99699.57
2023-09-27T14:10:54.327Z,99699.10
2023-09-27T14:12:59.196Z,99698.27
2023-09-27T14:15:04.648Z,99691.87
2023-09-27T14:17:10.392Z,99690.84
2023-09-27T14:19:15.327Z,99685.35
2023-09-27T14:21:20.470Z,99690.00
2023-09-27T14:23:25.642Z,99690.56
2023-09-27T14:25:30.586Z,99677.34
2023-09-27T14:27:35.623Z,99681.88
2023-09-27T14:29:40.750Z,99678.15
2023-09-27T14:31:45.825Z,99672.78
2023-09-27T14:33:51.542Z,99670.99
2023-09-27T14:35:56.697Z,99666.89
2023-09-27T14:38:01.952Z,99662.06
2023-09-27T14:40:08.303Z,99658.93
2023-09-27T14:42:13.349Z,99659.58
2023-09-27T14:44:18.424Z,99659.91
2023-09-27T14:46:23.608Z,99659.63
2023-09-27T14:48:28.789Z,99655.85
2023-09-27T14:50:34.333Z,99652.17
2023-09-27T14:52:39.593Z,99655.65
2023-09-27T14:54:47.576Z,99651.75
2023-09-27T14:56:52.379Z,99654.86
2023-09-27T14:58:58.041Z,99649.58
2023-09-27T15:01:04.630Z,99653.98
2023-09-27T15:03:09.741Z,99652.04
2023-09-27T15:05:15.016Z,99655.98
2023-09-27T15:07:20.109Z,99651.59
2023-09-27T15:09:24.898Z,99654.44
2023-09-27T15:11:30.041Z,99646.45
2023-09-27T15:13:34.794Z,99648.05
2023-09-27T15:15:43.813Z,99645.27
2023-09-27T15:17:48.634Z,99646.64
2023-09-27T15:19:53.736Z,99647.79
2023-09-27T15:22:01.369Z,99648.58
2023-09-27T15:24:06.579Z,99644.89
2023-09-27T15:26:13.598Z,99644.59
2023-09-27T15:28:18.454Z,99641.69
2023-09-27T15:30:23.508Z,99641.63
2023-09-27T15:32:28.478Z,99641.48
2023-09-27T15:34:36.260Z,99639.50
2023-09-27T15:36:40.960Z,99637.41
2023-09-27T15:38:45.808Z,99634.69
2023-09-27T15:40:50.998Z,99640.67
2023-09-27T15:42:57.193Z,99642.06
2023-09-27T15:45:09.045Z,99646.17
2023-09-27T15:47:14.279Z,99645.14
2023-09-27T15:49:19.277Z,99644.77
2023-09-27T15:51:24.287Z,99641.82
2023-09-27T15:53:31.925Z,99640.59
2023-09-27T15:55:36.690Z,99638.79
2023-09-27T15:57:41.514Z,99638.80
2023-09-27T15:59:46.312Z,99635.84
2023-09-27T16:01:51.333Z,99636.91
2023-09-27T16:03:56.190Z,99632.17
2023-09-27T16:06:01.520Z,99631.70
2023-09-27T16:08:06.991Z,99633.66
2023-09-27T16:10:12.489Z,99633.49
2023-09-27T16:12:17.269Z,99630.94
2023-09-27T16:14:22.251Z,99629.25
2023-09-27T16:16:27.507Z,99632.70
2023-09-27T16:18:32.370Z,99638.37
2023-09-27T16:20:37.224Z,99633.92
2023-09-27T16:22:42.203Z,99634.09
2023-09-27T16:24:47.364Z,99638.60
2023-09-27T16:26:52.446Z,99635.07
2023-09-27T16:28:57.383Z,99634.21
2023-09-27T16:31:08.292Z,99629.20
2023-09-27T16:33:15.132Z,99631.73
2023-09-27T16:35:20.809Z,99628.55
2023-09-27T16:37:26.132Z,99624.88
2023-09-27T16:39:31.223Z,99628.85
2023-09-27T16:41:37.969Z,99631.33
2023-09-27T16:43:43.134Z,99632.70
2023-09-27T16:45:48.272Z,99635.77
2023-09-27T16:47:53.665Z,99635.05
2023-09-27T16:49:59.017Z,99634.84
2023-09-27T16:52:04.243Z,99632.95
2023-09-27T16:54:10.189Z,99634.28
2023-09-27T16:56:15.251Z,99631.95
2023-09-27T16:58:20.971Z,99630.58
2023-09-27T17:00:26.135Z,99633.42
2023-09-27T17:02:32.772Z,99627.03
2023-09-27T17:04:39.619Z,99631.86
2023-09-27T17:06:45.886Z,99634.48
2023-09-27T17:08:52.097Z,99632.81
2023-09-27T17:10:58.601Z,99630.84
2023-09-27T17:13:04.925Z,99632.34
2023-09-27T17:15:12.552Z,99630.94
2023-09-27T17:17:18.835Z,99633.20
2023-09-27T17:19:27.761Z,99627.55
2023-09-27T17:21:33.903Z,99631.21
2023-09-27T17:23:40.753Z,99630.09
2023-09-27T17:25:47.721Z,99628.42
2023-09-27T17:27:53.412Z,99626.69
2023-09-27T17:30:01.063Z,99626.23
2023-09-27T17:32:12.809Z,99623.85
2023-09-27T17:34:19.974Z,99627.14
2023-09-27T17:36:26.370Z,99628.41
2023-09-27T17:38:34.570Z,99628.70
2023-09-27T17:40:40.928Z,99631.77
2023-09-27T17:42:46.652Z,99633.79
2023-09-27T17:44:53.405Z,99631.30
2023-09-27T17:47:00.954Z,99628.02
2023-09-27T17:49:08.472Z,99628.85
2023-09-27T17:51:17.075Z,99632.17
2023-09-27T17:53:23.090Z,99630.55
2023-09-27T17:55:28.634Z,99628.55
2023-09-27T17:57:36.520Z,99632.91
2023-09-27T17:59:45.615Z,99629.48
2023-09-27T18:01:53.932Z,99629.30
2023-09-27T18:04:00.710Z,99632.31
2023-09-27T18:06:14.075Z,99630.20
2023-09-27T18:08:20.729Z,99632.88
2023-09-27T18:10:26.015Z,99632.66
2023-09-27T18:12:33.532Z,99634.69
2023-09-27T18:14:39.107Z,99634.85
2023-09-27T18:16:46.700Z,99635.73
2023-09-27T18:18:52.261Z,99634.70
2023-09-27T18:20:58.015Z,99638.14
2023-09-27T18:23:04.746Z,99635.48
2023-09-27T18:25:17.843Z,99635.27
2023-09-27T18:27:25.198Z,99636.47
2023-09-27T18:29:31.441Z,99634.07
2023-09-27T18:31:42.724Z,99633.38
2023-09-27T18:33:49.916Z,99634.51
2023-09-27T18:35:57.577Z,99632.61
2023-09-27T18:38:05.662Z,99633.52
2023-09-27T18:40:14.130Z,99631.55
2023-09-27T18:42:24.135Z,99633.77
2023-09-27T18:44:32.742Z,99631.92
2023-09-27T18:46:39.729Z,99634.26
2023-09-27T18:48:47.377Z,99634.47
2023-09-27T18:50:55.349Z,99636.20
2023-09-27T18:53:02.668Z,99639.55
2023-09-27T18:55:13.920Z,99638.15
2023-09-27T18:57:22.563Z,99641.02
2023-09-27T18:59:30.098Z,99644.22
2023-09-27T19:01:36.171Z,99641.01
2023-09-27T19:03:43.186Z,99644.80
2023-09-27T19:05:52.263Z,99643.20
2023-09-27T19:08:02.892Z,99644.14
2023-09-27T19:10:12.122Z,99641.73
2023-09-27T19:12:22.926Z,99646.06
2023-09-27T19:14:34.088Z,99645.68
2023-09-27T19:16:43.763Z,99639.16
2023-09-27T19:18:54.522Z,99643.31
2023-09-27T19:21:00.407Z,99641.13
2023-09-27T19:23:07.479Z,99641.41
2023-09-27T19:25:15.010Z,99638.90
2023-09-27T19:27:21.975Z,99642.04
2023-09-27T19:29:28.227Z,99637.73
2023-09-27T19:31:35.273Z,99637.10
2023-09-27T19:33:43.453Z,99639.47
2023-09-27T19:35:49.839Z,99638.31
2023-09-27T19:37:57.845Z,99636.08
2023-09-27T19:40:08.111Z,99637.04
2023-09-27T19:42:17.105Z,99638.06
2023-09-27T19:44:24.869Z,99638.38
2023-09-27T19:46:31.951Z,99636.35
2023-09-27T19:48:47.425Z,99636.19
2023-09-27T19:50:53.649Z,99635.09
2023-09-27T19:53:02.797Z,99639.33
2023-09-27T19:55:11.319Z,99634.38
2023-09-27T19:57:19.099Z,99634.48
2023-09-27T19:59:27.715Z,99628.94
2023-09-27T20:01:34.782Z,99635.86
2023-09-27T20:03:41.271Z,99634.92
2023-09-27T20:05:47.028Z,99634.31
2023-09-27T20:07:53.505Z,99640.55
2023-09-27T20:09:59.405Z,99636.58
2023-09-27T20:12:04.997Z,99638.40
2023-09-27T20:14:10.374Z,99636.11
2023-09-27T20:16:17.915Z,99631.49
2023-09-27T20:18:24.091Z,99635.48
2023-09-27T20:20:29.344Z,99636.23
2023-09-27T20:22:35.778Z,99636.27
2023-09-27T20:24:41.572Z,99642.68
2023-09-27T20:26:48.724Z,99642.63
2023-09-27T20:28:54.230Z,99643.94
2023-09-27T20:30:59.748Z,99649.17
2023-09-27T20:33:05.644Z,99646.70
2023-09-27T20:35:11.356Z,99647.58
2023-09-27T20:37:16.275Z,99645.75
2023-09-27T20:39:21.645Z,99647.08
2023-09-27T20:41:26.411Z,99648.46
2023-09-27T20:43:31.452Z,99652.48
2023-09-27T20:45:37.785Z,99651.86
2023-09-27T20:47:42.690Z,99656.63
2023-09-27T20:49:47.826Z,99657.84
2023-09-27T20:51:52.721Z,99651.50
2023-09-27T20:53:57.724Z,99652.58
2023-09-27T20:56:05.359Z,99653.90
2023-09-27T20:58:10.266Z,99656.61
2023-09-27T21:00:16.771Z,99656.39
2023-09-27T21:02:21.869Z,99655.44
2023-09-27T21:04:29.507Z,99654.39
2023-09-27T21:06:34.397Z,99653.08
2023-09-27T21:08:41.073Z,99651.98
2023-09-27T21:10:47.259Z,99651.66
2023-09-27T21:12:52.168Z,99650.52
2023-09-27T21:14:59.749Z,99652.20
2023-09-27T21:17:04.564Z,99651.30
2023-09-27T21:19:09.356Z,99650.94
2023-09-27T21:21:14.524Z,99654.61
2023-09-27T21:23:20.983Z,99652.92
2023-09-27T21:25:26.050Z,99652.50
2023-09-27T21:27:30.845Z,99649.83
2023-09-27T21:29:35.672Z,99649.06
2023-09-27T21:31:42.957Z,99651.02
2023-09-27T21:33:47.906Z,99648.38
2023-09-27T21:35:56.719Z,99648.06
2023-09-27T21:38:01.666Z,99642.50
2023-09-27T21:40:08.644Z,99645.61
2023-09-27T21:42:13.544Z,99645.02
2023-09-27T21:44:22.107Z,99642.95
2023-09-27T21:46:27.095Z,99642.66
2023-09-27T21:48:32.757Z,99647.78
2023-09-27T21:50:38.702Z,99643.48
2023-09-27T21:52:43.481Z,99646.40
2023-09-27T21:54:48.478Z,99644.59
2023-09-27T21:56:53.271Z,99636.73
2023-09-27T21:58:58.219Z,99640.53
2023-09-27T22:01:09.465Z,99633.30
2023-09-27T22:03:14.409Z,99635.27
2023-09-27T22:05:19.499Z,99628.32
2023-09-27T22:07:24.346Z,99630.48
2023-09-27T22:09:29.289Z,99626.52
2023-09-27T22:11:34.058Z,99623.11
2023-09-27T22:13:39.624Z,99626.75
2023-09-27T22:15:45.476Z,99624.55
2023-09-27T22:17:50.339Z,99620.43
2023-09-27T22:19:55.209Z,99623.30
2023-09-27T22:22:00.367Z,99621.04
2023-09-27T22:24:06.078Z,99616.42
2023-09-27T22:26:16.257Z,99614.48
2023-09-27T22:28:21.464Z,99615.89
2023-09-27T22:30:26.335Z,99617.55
2023-09-27T22:32:31.143Z,99611.27
2023-09-27T22:34:35.957Z,99612.08
2023-09-27T22:36:41.640Z,99613.85
2023-09-27T22:38:46.399Z,99612.06
2023-09-27T22:40:51.230Z,99609.20
2023-09-27T22:42:56.088Z,99611.27
2023-09-27T22:45:00.773Z,99609.86
2023-09-27T22:47:06.279Z,99613.64
2023-09-27T22:49:10.987Z,99609.85
2023-09-27T22:51:15.864Z,99610.46
2023-09-27T22:53:21.621Z,99610.13
2023-09-27T22:55:27.365Z,99608.55
2023-09-27T22:57:32.782Z,99607.89
2023-09-27T22:59:37.692Z,99607.13
2023-09-27T23:01:44.983Z,99608.02
2023-09-27T23:03:51.241Z,99606.92
2023-09-27T23:05:56.303Z,99603.89
2023-09-27T23:08:02.244Z,99602.67
2023-09-27T23:10:08.598Z,99602.40
2023-09-27T23:12:13.656Z,99605.79
2023-09-27T23:14:19.644Z,99606.98
2023-09-27T23:16:24.782Z,99606.34
2023-09-27T23:18:30.201Z,99603.05
2023-09-27T23:20:35.617Z,99606.09
2023-09-27T23:22:40.336Z,99601.63
2023-09-27T23:24:51.842Z,99600.59
2023-09-27T23:26:56.544Z,99599.56
2023-09-27T23:29:01.349Z,99599.23
2023-09-27T23:31:08.584Z,99599.91
2023-09-27T23:33:13.319Z,99601.20
2023-09-27T23:35:18.336Z,99598.39
2023-09-27T23:37:23.227Z,99599.72
2023-09-27T23:39:31.164Z,99602.63
2023-09-27T23:41:35.786Z,99598.77
2023-09-27T23:43:40.459Z,99598.88
2023-09-27T23:45:45.235Z,99596.55
2023-09-27T23:47:53.169Z,99597.61
2023-09-27T23:49:57.963Z,99594.02
2023-09-27T23:52:03.079Z,99591.73
2023-09-27T23:54:08.125Z,99590.17
2023-09-27T23:56:14.486Z,99589.80
2023-09-27T23:58:19.273Z,99589.20
